sensor_id;sensor_type;location;lat;lon;timestamp;pressure;altitude;pressure_sealevel;temperature;humidity
26697;BME280;14312;52.614;13.496;2023-05-11T00:01:54;100742.41;;;15.94;50.75
26697;BME280;14312;52.614;13.496;2023-05-11T00:04:40;100739.19;;;15.92;50.84
26697;BME280;14312;52.614;13.496;2023-05-11T00:07:26;100745.91;;;15.90;51.05
26697;BME280;14312;52.614;13.496;2023-05-11T00:10:12;100745.38;;;15.88;51.23
26697;BME280;14312;52.614;13.496;2023-05-11T00:12:58;100736.50;;;15.87;51.22
26697;BME280;14312;52.614;13.496;2023-05-11T00:15:44;100736.78;;;15.86;51.29
26697;BME280;14312;52.614;13.496;2023-05-11T00:18:30;100737.84;;;15.85;51.36
26697;BME280;14312;52.614;13.496;2023-05-11T00:21:16;100730.34;;;15.82;51.32
26697;BME280;14312;52.614;13.496;2023-05-11T00:24:02;100733.84;;;15.82;51.48
26697;BME280;14312;52.614;13.496;2023-05-11T00:26:48;100739.47;;;15.81;51.63
26697;BME280;14312;52.614;13.496;2023-05-11T00:29:34;100737.06;;;15.79;51.65
26697;BME280;14312;52.614;13.496;2023-05-11T00:32:20;100733.56;;;15.79;51.78
26697;BME280;14312;52.614;13.496;2023-05-11T00:35:06;100730.38;;;15.77;51.77
26697;BME280;14312;52.614;13.496;2023-05-11T00:37:52;100731.19;;;15.77;51.74
26697;BME280;14312;52.614;13.496;2023-05-11T00:40:38;100727.94;;;15.75;51.78
26697;BME280;14312;52.614;13.496;2023-05-11T00:43:24;100727.94;;;15.75;51.92
26697;BME280;14312;52.614;13.496;2023-05-11T00:46:10;100734.66;;;15.73;51.97
26697;BME280;14312;52.614;13.496;2023-05-11T00:48:57;100736.53;;;15.72;51.90
26697;BME280;14312;52.614;13.496;2023-05-11T00:51:43;100736.03;;;15.70;52.04
26697;BME280;14312;52.614;13.496;2023-05-11T00:54:30;100748.91;;;15.68;51.86
26697;BME280;14312;52.614;13.496;2023-05-11T00:57:16;100740.31;;;15.66;51.97
26697;BME280;14312;52.614;13.496;2023-05-11T01:00:03;100747.81;;;15.64;52.04
26697;BME280;14312;52.614;13.496;2023-05-11T01:02:50;100733.34;;;15.60;52.14
26697;BME280;14312;52.614;13.496;2023-05-11T01:15:32;100737.88;;;15.44;53.81
26697;BME280;14312;52.614;13.496;2023-05-11T01:21:15;100742.97;;;15.36;52.19
26697;BME280;14312;52.614;13.496;2023-05-11T01:27:30;100742.44;;;15.28;52.41
26697;BME280;14312;52.614;13.496;2023-05-11T01:30:27;100748.34;;;15.25;52.94
26697;BME280;14312;52.614;13.496;2023-05-11T01:33:15;100746.19;;;15.22;52.55
26697;BME280;14312;52.614;13.496;2023-05-11T01:36:07;100755.59;;;15.20;53.22
26697;BME280;14312;52.614;13.496;2023-05-11T01:38:57;100749.41;;;15.14;53.04
26697;BME280;14312;52.614;13.496;2023-05-11T01:41:50;100754.53;;;15.11;52.62
26697;BME280;14312;52.614;13.496;2023-05-11T01:44:38;100752.09;;;15.04;52.71
26697;BME280;14312;52.614;13.496;2023-05-11T01:47:27;100757.97;;;14.96;52.71
26697;BME280;14312;52.614;13.496;2023-05-11T01:50:16;100762.81;;;14.89;53.15
26697;BME280;14312;52.614;13.496;2023-05-11T01:53:05;100757.94;;;14.81;52.46
26697;BME280;14312;52.614;13.496;2023-05-11T01:55:53;100756.31;;;14.75;52.60
26697;BME280;14312;52.614;13.496;2023-05-11T01:58:40;100769.19;;;14.68;52.75
26697;BME280;14312;52.614;13.496;2023-05-11T02:01:28;100772.66;;;14.63;52.99
26697;BME280;14312;52.614;13.496;2023-05-11T02:04:14;100771.00;;;14.57;52.99
26697;BME280;14312;52.614;13.496;2023-05-11T02:07:04;100768.31;;;14.52;53.00
26697;BME280;14312;52.614;13.496;2023-05-11T02:09:52;100773.41;;;14.48;53.29
26697;BME280;14312;52.614;13.496;2023-05-11T02:12:39;100777.16;;;14.47;53.44
26697;BME280;14312;52.614;13.496;2023-05-11T02:15:27;100780.91;;;14.46;53.42
26697;BME280;14312;52.614;13.496;2023-05-11T02:18:13;100788.38;;;14.44;53.51
26697;BME280;14312;52.614;13.496;2023-05-11T02:21:01;100790.50;;;14.42;53.49
26697;BME280;14312;52.614;13.496;2023-05-11T02:23:48;100788.38;;;14.39;53.66
26697;BME280;14312;52.614;13.496;2023-05-11T02:26:36;100791.06;;;14.39;53.57
26697;BME280;14312;52.614;13.496;2023-05-11T02:29:22;100793.16;;;14.37;53.58
26697;BME280;14312;52.614;13.496;2023-05-11T02:32:12;100784.56;;;14.35;54.15
26697;BME280;14312;52.614;13.496;2023-05-11T02:35:14;100799.06;;;14.34;55.04
26697;BME280;14312;52.614;13.496;2023-05-11T02:38:01;100788.84;;;14.31;53.78
26697;BME280;14312;52.614;13.496;2023-05-11T02:40:54;100785.59;;;14.29;54.36
26697;BME280;14312;52.614;13.496;2023-05-11T02:43:48;100787.75;;;14.27;54.70
26697;BME280;14312;52.614;13.496;2023-05-11T02:46:36;100789.88;;;14.25;53.88
26697;BME280;14312;52.614;13.496;2023-05-11T02:49:24;100790.38;;;14.22;53.85
26697;BME280;14312;52.614;13.496;2023-05-11T02:52:14;100799.50;;;14.21;53.97
26697;BME280;14312;52.614;13.496;2023-05-11T02:55:01;100789.31;;;14.18;54.00
26697;BME280;14312;52.614;13.496;2023-05-11T02:57:49;100795.16;;;14.15;54.04
26697;BME280;14312;52.614;13.496;2023-05-11T03:00:37;100795.72;;;14.12;54.32
26697;BME280;14312;52.614;13.496;2023-05-11T03:03:23;100801.56;;;14.09;54.19
26697;BME280;14312;52.614;13.496;2023-05-11T03:06:09;100796.75;;;14.06;54.22
26697;BME280;14312;52.614;13.496;2023-05-11T03:08:56;100802.59;;;14.03;54.29
26697;BME280;14312;52.614;13.496;2023-05-11T03:11:42;100803.13;;;14.00;54.32
26697;BME280;14312;52.614;13.496;2023-05-11T03:14:32;100801.53;;;13.99;55.12
26697;BME280;14312;52.614;13.496;2023-05-11T03:17:19;100804.72;;;13.96;54.32
26697;BME280;14312;52.614;13.496;2023-05-11T03:20:07;100810.31;;;13.94;54.40
26697;BME280;14312;52.614;13.496;2023-05-11T03:22:54;100796.66;;;13.91;54.29
26697;BME280;14312;52.614;13.496;2023-05-11T03:25:41;100795.28;;;13.88;54.33
26697;BME280;14312;52.614;13.496;2023-05-11T03:28:29;100802.75;;;13.86;54.38
26697;BME280;14312;52.614;13.496;2023-05-11T03:31:17;100800.84;;;13.82;54.43
26697;BME280;14312;52.614;13.496;2023-05-11T03:34:03;100805.66;;;13.80;54.35
26697;BME280;14312;52.614;13.496;2023-05-11T03:36:49;100803.50;;;13.77;54.22
26697;BME280;14312;52.614;13.496;2023-05-11T03:39:37;100797.84;;;13.73;54.25
26697;BME280;14312;52.614;13.496;2023-05-11T03:42:24;100804.00;;;13.73;54.30
26697;BME280;14312;52.614;13.496;2023-05-11T03:45:12;100802.38;;;13.72;54.51
26697;BME280;14312;52.614;13.496;2023-05-11T03:48:00;100806.13;;;13.71;54.37
26697;BME280;14312;52.614;13.496;2023-05-11T03:50:47;100799.69;;;13.67;54.45
26697;BME280;14312;52.614;13.496;2023-05-11T03:53:34;100795.94;;;13.68;54.32
26697;BME280;14312;52.614;13.496;2023-05-11T03:56:20;100794.31;;;13.67;54.42
26697;BME280;14312;52.614;13.496;2023-05-11T03:59:07;100801.31;;;13.68;54.53
26697;BME280;14312;52.614;13.496;2023-05-11T04:01:54;100797.56;;;13.69;54.52
26697;BME280;14312;52.614;13.496;2023-05-11T04:04:40;100795.94;;;13.68;54.44
26697;BME280;14312;52.614;13.496;2023-05-11T04:07:26;100798.91;;;13.72;54.39
26697;BME280;14312;52.614;13.496;2023-05-11T04:10:12;100804.00;;;13.73;54.51
26697;BME280;14312;52.614;13.496;2023-05-11T04:12:58;100801.88;;;13.76;54.60
26697;BME280;14312;52.614;13.496;2023-05-11T04:15:44;100805.13;;;13.78;54.67
26697;BME280;14312;52.614;13.496;2023-05-11T04:18:30;100810.75;;;13.81;54.72
26697;BME280;14312;52.614;13.496;2023-05-11T04:21:16;100811.06;;;13.85;54.75
26697;BME280;14312;52.614;13.496;2023-05-11T04:24:02;100806.81;;;13.89;54.78
26697;BME280;14312;52.614;13.496;2023-05-11T04:26:54;100818.91;;;13.96;55.50
26697;BME280;14312;52.614;13.496;2023-05-11T04:29:40;100815.44;;;14.01;54.89
26697;BME280;14312;52.614;13.496;2023-05-11T04:32:26;100815.22;;;14.07;54.71
26697;BME280;14312;52.614;13.496;2023-05-11T04:35:13;100816.34;;;14.11;54.84
26697;BME280;14312;52.614;13.496;2023-05-11T04:37:59;100812.06;;;14.16;54.78
26697;BME280;14312;52.614;13.496;2023-05-11T04:40:45;100814.00;;;14.20;54.92
26697;BME280;14312;52.614;13.496;2023-05-11T04:43:33;100819.91;;;14.27;55.08
26697;BME280;14312;52.614;13.496;2023-05-11T04:46:19;100818.88;;;14.33;55.08
26697;BME280;14312;52.614;13.496;2023-05-11T04:49:05;100824.84;;;14.40;55.11
26697;BME280;14312;52.614;13.496;2023-05-11T04:51:50;100819.25;;;14.47;55.22
26697;BME280;14312;52.614;13.496;2023-05-11T04:54:36;100820.63;;;14.55;55.25
26697;BME280;14312;52.614;13.496;2023-05-11T04:57:23;100828.19;;;14.63;55.22
26697;BME280;14312;52.614;13.496;2023-05-11T05:00:10;100825.53;;;14.73;55.50
26697;BME280;14312;52.614;13.496;2023-05-11T05:02:56;100824.22;;;14.80;55.47
26697;BME280;14312;52.614;13.496;2023-05-11T05:05:42;100830.44;;;14.91;55.43
26697;BME280;14312;52.614;13.496;2023-05-11T05:08:28;100837.44;;;15.02;55.63
26697;BME280;14312;52.614;13.496;2023-05-11T05:11:14;100833.69;;;15.13;55.68
26697;BME280;14312;52.614;13.496;2023-05-11T05:14:00;100824.59;;;15.24;55.55
26697;BME280;14312;52.614;13.496;2023-05-11T05:16:46;100830.78;;;15.35;55.58
26697;BME280;14312;52.614;13.496;2023-05-11T05:19:32;100836.19;;;15.45;55.45
26697;BME280;14312;52.614;13.496;2023-05-11T05:22:18;100835.97;;;15.62;55.43
26697;BME280;14312;52.614;13.496;2023-05-11T05:25:04;100839.19;;;15.74;55.54
26697;BME280;14312;52.614;13.496;2023-05-11T05:27:51;100839.19;;;15.84;55.37
26697;BME280;14312;52.614;13.496;2023-05-11T05:30:36;100841.03;;;15.99;55.24
26697;BME280;14312;52.614;13.496;2023-05-11T05:33:22;100841.31;;;16.13;55.26
26697;BME280;14312;52.614;13.496;2023-05-11T05:36:08;100840.75;;;16.26;55.00
26697;BME280;14312;52.614;13.496;2023-05-11T05:38:54;100843.94;;;16.38;54.92
26697;BME280;14312;52.614;13.496;2023-05-11T05:41:40;100845.50;;;16.49;54.63
26697;BME280;14312;52.614;13.496;2023-05-11T05:44:27;100848.19;;;16.59;54.61
26697;BME280;14312;52.614;13.496;2023-05-11T05:47:13;100854.06;;;16.71;54.28
26697;BME280;14312;52.614;13.496;2023-05-11T05:49:59;100852.44;;;16.80;54.12
26697;BME280;14312;52.614;13.496;2023-05-11T05:52:45;100850.78;;;16.90;54.12
26697;BME280;14312;52.614;13.496;2023-05-11T05:55:31;100857.72;;;17.01;53.82
26697;BME280;14312;52.614;13.496;2023-05-11T05:58:17;100860.66;;;17.09;53.78
26697;BME280;14312;52.614;13.496;2023-05-11T06:01:03;100863.25;;;17.19;53.91
26697;BME280;14312;52.614;13.496;2023-05-11T06:03:49;100865.91;;;17.30;53.76
26697;BME280;14312;52.614;13.496;2023-05-11T06:06:36;100861.28;;;17.40;53.68
26697;BME280;14312;52.614;13.496;2023-05-11T06:09:22;100866.59;;;17.50;53.73
26697;BME280;14312;52.614;13.496;2023-05-11T06:12:09;100863.56;;;17.62;53.70
26697;BME280;14312;52.614;13.496;2023-05-11T06:14:55;100866.72;;;17.74;53.56
26697;BME280;14312;52.614;13.496;2023-05-11T06:17:41;100862.84;;;17.85;53.46
26697;BME280;14312;52.614;13.496;2023-05-11T06:20:27;100862.78;;;17.95;53.37
26697;BME280;14312;52.614;13.496;2023-05-11T06:23:13;100868.31;;;18.09;53.05
26697;BME280;14312;52.614;13.496;2023-05-11T06:25:59;100860.63;;;18.21;53.24
26697;BME280;14312;52.614;13.496;2023-05-11T06:28:45;100859.94;;;18.34;52.96
26697;BME280;14312;52.614;13.496;2023-05-11T06:31:31;100861.47;;;18.46;52.66
26697;BME280;14312;52.614;13.496;2023-05-11T06:34:18;100866.22;;;18.59;52.74
26697;BME280;14312;52.614;13.496;2023-05-11T06:37:04;100866.31;;;18.72;52.66
26697;BME280;14312;52.614;13.496;2023-05-11T06:39:50;100864.00;;;18.85;52.43
26697;BME280;14312;52.614;13.496;2023-05-11T06:42:36;100872.72;;;19.00;52.15
26697;BME280;14312;52.614;13.496;2023-05-11T06:45:22;100866.59;;;19.13;52.18
26697;BME280;14312;52.614;13.496;2023-05-11T06:48:08;100872.88;;;19.28;51.74
26697;BME280;14312;52.614;13.496;2023-05-11T06:50:54;100865.13;;;19.40;51.69
26697;BME280;14312;52.614;13.496;2023-05-11T06:53:40;100866.03;;;19.54;51.50
26697;BME280;14312;52.614;13.496;2023-05-11T06:56:26;100861.47;;;19.68;51.70
26697;BME280;14312;52.614;13.496;2023-05-11T06:59:13;100856.91;;;19.82;51.29
26697;BME280;14312;52.614;13.496;2023-05-11T07:01:59;100855.06;;;19.97;50.96
26697;BME280;14312;52.614;13.496;2023-05-11T07:04:45;100854.78;;;20.12;50.50
26697;BME280;14312;52.614;13.496;2023-05-11T07:07:31;100858.84;;;20.28;50.18
26697;BME280;14312;52.614;13.496;2023-05-11T07:10:17;100860.28;;;20.39;49.68
26697;BME280;14312;52.614;13.496;2023-05-11T07:13:03;100863.31;;;20.51;49.47
26697;BME280;14312;52.614;13.496;2023-05-11T07:15:50;100866.31;;;20.63;49.51
26697;BME280;14312;52.614;13.496;2023-05-11T07:18:36;100860.72;;;20.74;49.20
26697;BME280;14312;52.614;13.496;2023-05-11T07:21:22;100863.09;;;20.89;48.18
26697;BME280;14312;52.614;13.496;2023-05-11T07:24:08;100863.88;;;21.03;46.92
26697;BME280;14312;52.614;13.496;2023-05-11T07:26:54;100864.75;;;21.12;46.99
26697;BME280;14312;52.614;13.496;2023-05-11T07:29:41;100865.66;;;21.21;46.91
26697;BME280;14312;52.614;13.496;2023-05-11T07:32:28;100871.47;;;21.28;46.74
26697;BME280;14312;52.614;13.496;2023-05-11T07:35:13;100862.63;;;21.36;46.92
26697;BME280;14312;52.614;13.496;2023-05-11T07:37:59;100869.41;;;21.47;46.56
26697;BME280;14312;52.614;13.496;2023-05-11T07:40:45;100863.44;;;21.59;46.51
26697;BME280;14312;52.614;13.496;2023-05-11T07:43:31;100868.31;;;21.71;46.44
26697;BME280;14312;52.614;13.496;2023-05-11T07:46:17;100858.81;;;21.82;46.39
26697;BME280;14312;52.614;13.496;2023-05-11T07:49:03;100862.56;;;21.95;46.31
26697;BME280;14312;52.614;13.496;2023-05-11T07:51:49;100857.09;;;22.08;45.58
26697;BME280;14312;52.614;13.496;2023-05-11T07:54:37;100869.28;;;22.19;45.77
26697;BME280;14312;52.614;13.496;2023-05-11T07:57:24;100860.88;;;22.30;45.74
26697;BME280;14312;52.614;13.496;2023-05-11T08:00:11;100855.66;;;22.42;45.58
26697;BME280;14312;52.614;13.496;2023-05-11T08:02:57;100860.16;;;22.55;45.14
26697;BME280;14312;52.614;13.496;2023-05-11T08:05:43;100856.06;;;22.66;44.72
26697;BME280;14312;52.614;13.496;2023-05-11T08:08:29;100855.78;;;22.76;44.96
26697;BME280;14312;52.614;13.496;2023-05-11T08:11:15;100861.91;;;22.90;44.68
26697;BME280;14312;52.614;13.496;2023-05-11T08:14:02;100867.03;;;23.00;44.94
26697;BME280;14312;52.614;13.496;2023-05-11T08:16:48;100860.66;;;23.14;44.58
26697;BME280;14312;52.614;13.496;2023-05-11T08:19:37;100865.16;;;23.27;43.69
26697;BME280;14312;52.614;13.496;2023-05-11T08:22:22;100861.63;;;23.35;43.11
26697;BME280;14312;52.614;13.496;2023-05-11T08:25:08;100854.75;;;23.46;43.61
26697;BME280;14312;52.614;13.496;2023-05-11T08:27:55;100859.59;;;23.58;43.20
26697;BME280;14312;52.614;13.496;2023-05-11T08:30:41;100863.25;;;23.70;43.15
26697;BME280;14312;52.614;13.496;2023-05-11T08:33:27;100848.97;;;23.82;42.93
26697;BME280;14312;52.614;13.496;2023-05-11T08:36:13;100854.56;;;23.94;43.32
26697;BME280;14312;52.614;13.496;2023-05-11T08:39:00;100851.66;;;24.08;42.86
26697;BME280;14312;52.614;13.496;2023-05-11T08:41:48;100856.75;;;24.27;42.47
26697;BME280;14312;52.614;13.496;2023-05-11T08:44:35;100859.25;;;24.40;42.60
26697;BME280;14312;52.614;13.496;2023-05-11T08:47:22;100845.56;;;24.57;42.45
26697;BME280;14312;52.614;13.496;2023-05-11T08:50:09;100856.03;;;24.76;42.45
26697;BME280;14312;52.614;13.496;2023-05-11T08:52:55;100858.34;;;24.95;42.35
26697;BME280;14312;52.614;13.496;2023-05-11T08:55:42;100849.84;;;25.17;42.17
26697;BME280;14312;52.614;13.496;2023-05-11T08:58:29;100848.69;;;25.39;41.68
26697;BME280;14312;52.614;13.496;2023-05-11T09:01:16;100842.91;;;25.61;41.91
26697;BME280;14312;52.614;13.496;2023-05-11T09:04:04;100842.22;;;25.85;41.96
26697;BME280;14312;52.614;13.496;2023-05-11T09:06:51;100839.97;;;26.11;41.58
26697;BME280;14312;52.614;13.496;2023-05-11T09:09:37;100835.00;;;26.38;41.20
26697;BME280;14312;52.614;13.496;2023-05-11T09:12:26;100839.78;;;26.65;40.67
26697;BME280;14312;52.614;13.496;2023-05-11T09:15:13;100835.44;;;26.88;40.14
26697;BME280;14312;52.614;13.496;2023-05-11T09:17:58;100839.31;;;27.12;38.59
26697;BME280;14312;52.614;13.496;2023-05-11T09:20:45;100837.44;;;27.28;39.19
26697;BME280;14312;52.614;13.496;2023-05-11T09:23:32;100836.44;;;27.48;39.13
26697;BME280;14312;52.614;13.496;2023-05-11T09:26:21;100833.19;;;27.71;38.44
26697;BME280;14312;52.614;13.496;2023-05-11T09:29:11;100832.16;;;27.91;36.12
26697;BME280;14312;52.614;13.496;2023-05-11T09:31:57;100830.56;;;28.05;36.81
26697;BME280;14312;52.614;13.496;2023-05-11T09:34:43;100836.06;;;28.21;37.38
26697;BME280;14312;52.614;13.496;2023-05-11T09:37:29;100827.03;;;28.36;37.02
26697;BME280;14312;52.614;13.496;2023-05-11T09:40:17;100838.09;;;28.56;35.66
26697;BME280;14312;52.614;13.496;2023-05-11T09:43:24;100831.75;;;28.71;34.79
26697;BME280;14312;52.614;13.496;2023-05-11T09:46:20;100833.81;;;28.74;33.90
26697;BME280;14312;52.614;13.496;2023-05-11T09:49:07;100829.47;;;28.73;33.82
26697;BME280;14312;52.614;13.496;2023-05-11T09:51:59;100830.25;;;28.73;34.20
26697;BME280;14312;52.614;13.496;2023-05-11T09:54:49;100829.47;;;28.73;33.18
26697;BME280;14312;52.614;13.496;2023-05-11T09:57:35;100835.94;;;28.65;33.35
26697;BME280;14312;52.614;13.496;2023-05-11T10:00:21;100833.84;;;28.58;33.50
26697;BME280;14312;52.614;13.496;2023-05-11T10:03:07;100828.28;;;28.55;32.00
26697;BME280;14312;52.614;13.496;2023-05-11T10:05:58;100823.03;;;28.50;31.76
26697;BME280;14312;52.614;13.496;2023-05-11T10:08:45;100819.16;;;28.35;31.85
26697;BME280;14312;52.614;13.496;2023-05-11T10:11:31;100825.81;;;28.18;31.71
26697;BME280;14312;52.614;13.496;2023-05-11T10:14:17;100831.78;;;28.08;32.23
26697;BME280;14312;52.614;13.496;2023-05-11T10:17:04;100826.94;;;28.01;32.49
26697;BME280;14312;52.614;13.496;2023-05-11T10:19:51;100826.66;;;27.91;32.19
26697;BME280;14312;52.614;13.496;2023-05-11T10:22:39;100820.72;;;27.73;32.14
26697;BME280;14312;52.614;13.496;2023-05-11T10:25:25;100821.38;;;27.54;32.46
26697;BME280;14312;52.614;13.496;2023-05-11T10:28:11;100818.91;;;27.37;33.08
26697;BME280;14312;52.614;13.496;2023-05-11T10:30:58;100831.16;;;27.27;31.99
26697;BME280;14312;52.614;13.496;2023-05-11T10:33:44;100826.28;;;27.21;32.13
26697;BME280;14312;52.614;13.496;2023-05-11T10:36:30;100822.38;;;27.22;32.93
26697;BME280;14312;52.614;13.496;2023-05-11T10:39:17;100826.59;;;27.32;33.21
26697;BME280;14312;52.614;13.496;2023-05-11T11:03:34;100816.22;;;27.81;30.24
26697;BME280;14312;52.614;13.496;2023-05-11T11:06:21;100808.34;;;27.51;29.70
26697;BME280;14312;52.614;13.496;2023-05-11T11:09:13;100814.84;;;27.31;30.55
26697;BME280;14312;52.614;13.496;2023-05-11T11:12:08;100815.34;;;27.21;30.99
26697;BME280;14312;52.614;13.496;2023-05-11T11:14:56;100810.41;;;27.26;32.34
26697;BME280;14312;52.614;13.496;2023-05-11T11:17:43;100817.63;;;27.47;31.87
26697;BME280;14312;52.614;13.496;2023-05-11T11:20:49;100804.88;;;27.66;32.00
26697;BME280;14312;52.614;13.496;2023-05-11T11:27:00;100825.19;;;27.65;32.33
26697;BME280;14312;52.614;13.496;2023-05-11T11:35:53;100831.13;;;27.00;32.27
26697;BME280;14312;52.614;13.496;2023-05-11T11:38:56;100834.75;;;26.79;32.91
26697;BME280;14312;52.614;13.496;2023-05-11T11:41:43;100829.09;;;26.60;33.27
26697;BME280;14312;52.614;13.496;2023-05-11T11:44:29;100835.72;;;26.47;33.45
26697;BME280;14312;52.614;13.496;2023-05-11T11:47:17;100836.28;;;26.40;33.51
26697;BME280;14312;52.614;13.496;2023-05-11T11:50:10;100837.75;;;26.38;34.03
26697;BME280;14312;52.614;13.496;2023-05-11T11:52:58;100834.81;;;26.43;34.19
26697;BME280;14312;52.614;13.496;2023-05-11T11:55:46;100831.50;;;26.62;34.18
26697;BME280;14312;52.614;13.496;2023-05-11T12:01:29;100837.16;;;26.93;33.50
26697;BME280;14312;52.614;13.496;2023-05-11T12:04:30;100842.84;;;27.00;32.81
26697;BME280;14312;52.614;13.496;2023-05-11T12:07:23;100832.72;;;27.01;33.07
26697;BME280;14312;52.614;13.496;2023-05-11T12:10:12;100835.81;;;26.99;33.20
26697;BME280;14312;52.614;13.496;2023-05-11T12:12:59;100839.69;;;26.98;33.40
26697;BME280;14312;52.614;13.496;2023-05-11T12:15:45;100846.75;;;26.99;33.42
26697;BME280;14312;52.614;13.496;2023-05-11T12:18:31;100840.69;;;27.06;33.24
26697;BME280;14312;52.614;13.496;2023-05-11T12:21:21;100836.13;;;27.10;33.13
26697;BME280;14312;52.614;13.496;2023-05-11T12:24:10;100835.44;;;27.13;33.21
26697;BME280;14312;52.614;13.496;2023-05-11T12:26:56;100836.56;;;27.12;32.77
26697;BME280;14312;52.614;13.496;2023-05-11T12:29:47;100847.97;;;27.14;33.06
26697;BME280;14312;52.614;13.496;2023-05-11T12:32:33;100841.59;;;27.10;33.00
26697;BME280;14312;52.614;13.496;2023-05-11T12:38:10;100840.44;;;27.11;33.02
26697;BME280;14312;52.614;13.496;2023-05-11T12:40:56;100845.66;;;27.16;32.99
26697;BME280;14312;52.614;13.496;2023-05-11T12:43:42;100844.28;;;27.22;32.41
26697;BME280;14312;52.614;13.496;2023-05-11T12:46:28;100842.91;;;27.28;32.71
26697;BME280;14312;52.614;13.496;2023-05-11T12:49:22;100839.31;;;27.40;32.83
26697;BME280;14312;52.614;13.496;2023-05-11T12:52:08;100835.72;;;27.51;32.26
26697;BME280;14312;52.614;13.496;2023-05-11T12:54:55;100839.34;;;27.67;32.36
26697;BME280;14312;52.614;13.496;2023-05-11T12:57:45;100840.59;;;27.86;32.62
26697;BME280;14312;52.614;13.496;2023-05-11T13:00:30;100845.50;;;28.08;32.18
26697;BME280;14312;52.614;13.496;2023-05-11T13:03:27;100838.81;;;28.37;31.94
26697;BME280;14312;52.614;13.496;2023-05-11T13:06:18;100833.19;;;28.65;31.33
26697;BME280;14312;52.614;13.496;2023-05-11T13:09:04;100832.28;;;28.92;31.82
26697;BME280;14312;52.614;13.496;2023-05-11T13:12:11;100838.50;;;29.28;31.36
26697;BME280;14312;52.614;13.496;2023-05-11T13:15:08;100834.22;;;29.46;30.70
26697;BME280;14312;52.614;13.496;2023-05-11T13:17:58;100837.53;;;29.55;29.99
26697;BME280;14312;52.614;13.496;2023-05-11T13:20:45;100832.06;;;29.55;29.75
26697;BME280;14312;52.614;13.496;2023-05-11T13:23:31;100832.75;;;29.52;29.76
26697;BME280;14312;52.614;13.496;2023-05-11T13:26:29;100824.88;;;29.50;29.97
26697;BME280;14312;52.614;13.496;2023-05-11T13:29:15;100824.81;;;29.47;29.87
26697;BME280;14312;52.614;13.496;2023-05-11T13:32:02;100821.78;;;29.52;30.69
26697;BME280;14312;52.614;13.496;2023-05-11T13:34:48;100814.25;;;29.68;30.40
26697;BME280;14312;52.614;13.496;2023-05-11T13:37:33;100814.72;;;29.93;29.94
26697;BME280;14312;52.614;13.496;2023-05-11T13:40:20;100810.03;;;30.20;30.35
26697;BME280;14312;52.614;13.496;2023-05-11T13:43:06;100826.72;;;30.53;29.00
26697;BME280;14312;52.614;13.496;2023-05-11T13:45:52;100819.94;;;30.73;28.07
26697;BME280;14312;52.614;13.496;2023-05-11T13:48:38;100815.28;;;30.78;27.32
26697;BME280;14312;52.614;13.496;2023-05-11T13:51:23;100815.97;;;30.71;27.55
26697;BME280;14312;52.614;13.496;2023-05-11T13:54:10;100809.56;;;30.63;27.59
26697;BME280;14312;52.614;13.496;2023-05-11T13:56:58;100803.56;;;30.54;27.42
26697;BME280;14312;52.614;13.496;2023-05-11T13:59:45;100804.22;;;30.48;28.26
26697;BME280;14312;52.614;13.496;2023-05-11T14:02:31;100809.22;;;30.42;28.18
26697;BME280;14312;52.614;13.496;2023-05-11T14:05:17;100809.53;;;30.37;28.28
26697;BME280;14312;52.614;13.496;2023-05-11T14:08:03;100807.53;;;30.34;28.25
26697;BME280;14312;52.614;13.496;2023-05-11T14:10:49;100805.16;;;30.32;28.25
26697;BME280;14312;52.614;13.496;2023-05-11T14:13:35;100796.47;;;30.30;28.50
26697;BME280;14312;52.614;13.496;2023-05-11T14:16:21;100794.16;;;30.32;28.29
26697;BME280;14312;52.614;13.496;2023-05-11T14:19:07;100801.28;;;30.37;28.06
26697;BME280;14312;52.614;13.496;2023-05-11T14:21:53;100804.38;;;30.32;27.64
26697;BME280;14312;52.614;13.496;2023-05-11T14:24:39;100808.41;;;30.15;27.55
26697;BME280;14312;52.614;13.496;2023-05-11T14:27:26;100806.03;;;29.91;27.56
26697;BME280;14312;52.614;13.496;2023-05-11T14:30:12;100803.97;;;29.65;27.38
26697;BME280;14312;52.614;13.496;2023-05-11T14:32:58;100812.75;;;29.32;27.34
26697;BME280;14312;52.614;13.496;2023-05-11T14:35:44;100803.78;;;28.97;27.40
26697;BME280;14312;52.614;13.496;2023-05-11T14:38:30;100812.84;;;28.66;27.78
26697;BME280;14312;52.614;13.496;2023-05-11T14:41:16;100806.00;;;28.40;27.41
26697;BME280;14312;52.614;13.496;2023-05-11T14:44:03;100799.13;;;28.15;27.56
26697;BME280;14312;52.614;13.496;2023-05-11T14:46:49;100811.84;;;27.92;27.82
26697;BME280;14312;52.614;13.496;2023-05-11T14:49:35;100801.53;;;27.73;28.23
26697;BME280;14312;52.614;13.496;2023-05-11T14:52:21;100797.63;;;27.58;28.32
26697;BME280;14312;52.614;13.496;2023-05-11T14:55:07;100801.66;;;27.49;28.32
26697;BME280;14312;52.614;13.496;2023-05-11T14:57:53;100794.72;;;27.39;28.71
26697;BME280;14312;52.614;13.496;2023-05-11T15:00:41;100804.78;;;27.35;29.03
26697;BME280;14312;52.614;13.496;2023-05-11T15:03:28;100806.28;;;27.33;28.83
26697;BME280;14312;52.614;13.496;2023-05-11T15:06:14;100804.00;;;27.35;28.84
26697;BME280;14312;52.614;13.496;2023-05-11T15:09:05;100811.84;;;27.36;28.54
26697;BME280;14312;52.614;13.496;2023-05-11T15:11:51;100815.81;;;27.39;28.80
26697;BME280;14312;52.614;13.496;2023-05-11T15:14:37;100807.28;;;27.40;28.80
26697;BME280;14312;52.614;13.496;2023-05-11T15:17:25;100804.28;;;27.45;28.78